sensor_id;sensor_type;location;lat;lon;timestamp;P1;durP1;ratioP1;P2;durP2;ratioP2
55829;SDS011;41759;53.330;6.002;2024-02-26T00:01:43;5.07;;;3.17;;
55829;SDS011;41759;53.330;6.002;2024-02-26T00:04:09;7.55;;;3.20;;
55829;SDS011;41759;53.330;6.002;2024-02-26T00:06:37;6.43;;;3.58;;
55829;SDS011;41759;53.330;6.002;2024-02-26T00:09:06;4.60;;;2.67;;
55829;SDS011;41759;53.330;6.002;2024-02-26T00:11:33;5.00;;;2.38;;
55829;SDS011;41759;53.330;6.002;2024-02-26T00:14:00;3.55;;;2.10;;
55829;SDS011;41759;53.330;6.002;2024-02-26T00:16:26;4.68;;;2.50;;
55829;SDS011;41759;53.330;6.002;2024-02-26T00:18:52;6.47;;;2.78;;
55829;SDS011;41759;53.330;6.002;2024-02-26T00:21:18;4.57;;;2.47;;
55829;SDS011;41759;53.330;6.002;2024-02-26T00:23:44;3.65;;;2.38;;
55829;SDS011;41759;53.330;6.002;2024-02-26T00:26:10;4.05;;;2.00;;
55829;SDS011;41759;53.330;6.002;2024-02-26T00:28:36;4.97;;;2.38;;
55829;SDS011;41759;53.330;6.002;2024-02-26T00:31:02;4.20;;;2.42;;
55829;SDS011;41759;53.330;6.002;2024-02-26T00:33:28;4.50;;;2.70;;
55829;SDS011;41759;53.330;6.002;2024-02-26T00:35:54;4.80;;;2.35;;
55829;SDS011;41759;53.330;6.002;2024-02-26T00:38:20;4.05;;;2.33;;
55829;SDS011;41759;53.330;6.002;2024-02-26T00:40:46;4.88;;;2.47;;
55829;SDS011;41759;53.330;6.002;2024-02-26T00:43:12;4.68;;;1.98;;
55829;SDS011;41759;53.330;6.002;2024-02-26T00:45:38;6.32;;;2.15;;
55829;SDS011;41759;53.330;6.002;2024-02-26T00:48:04;8.18;;;2.78;;
55829;SDS011;41759;53.330;6.002;2024-02-26T00:50:31;4.85;;;2.70;;
55829;SDS011;41759;53.330;6.002;2024-02-26T00:52:57;4.30;;;2.38;;
55829;SDS011;41759;53.330;6.002;2024-02-26T00:55:23;8.23;;;3.20;;
55829;SDS011;41759;53.330;6.002;2024-02-26T00:57:49;7.20;;;2.72;;
55829;SDS011;41759;53.330;6.002;2024-02-26T01:00:15;4.25;;;2.90;;
55829;SDS011;41759;53.330;6.002;2024-02-26T01:02:41;5.78;;;3.33;;
55829;SDS011;41759;53.330;6.002;2024-02-26T01:05:08;4.97;;;3.30;;
55829;SDS011;41759;53.330;6.002;2024-02-26T01:07:37;5.57;;;2.80;;
55829;SDS011;41759;53.330;6.002;2024-02-26T01:10:07;3.50;;;2.47;;
55829;SDS011;41759;53.330;6.002;2024-02-26T01:12:34;3.55;;;2.00;;
55829;SDS011;41759;53.330;6.002;2024-02-26T01:15:01;3.20;;;2.25;;
55829;SDS011;41759;53.330;6.002;2024-02-26T01:17:28;3.22;;;2.35;;
55829;SDS011;41759;53.330;6.002;2024-02-26T01:19:54;5.68;;;2.15;;
55829;SDS011;41759;53.330;6.002;2024-02-26T01:22:19;5.45;;;1.73;;
55829;SDS011;41759;53.330;6.002;2024-02-26T01:24:45;2.75;;;1.92;;
55829;SDS011;41759;53.330;6.002;2024-02-26T01:27:11;4.13;;;2.00;;
55829;SDS011;41759;53.330;6.002;2024-02-26T01:29:37;4.57;;;2.00;;
55829;SDS011;41759;53.330;6.002;2024-02-26T01:32:03;2.88;;;2.10;;
55829;SDS011;41759;53.330;6.002;2024-02-26T01:34:30;4.53;;;2.10;;
55829;SDS011;41759;53.330;6.002;2024-02-26T01:36:56;4.57;;;1.83;;
55829;SDS011;41759;53.330;6.002;2024-02-26T01:39:22;5.40;;;2.30;;
55829;SDS011;41759;53.330;6.002;2024-02-26T01:41:48;4.65;;;2.00;;
55829;SDS011;41759;53.330;6.002;2024-02-26T01:44:13;5.03;;;2.38;;
55829;SDS011;41759;53.330;6.002;2024-02-26T01:46:39;4.55;;;2.60;;
55829;SDS011;41759;53.330;6.002;2024-02-26T01:49:06;2.78;;;1.70;;
55829;SDS011;41759;53.330;6.002;2024-02-26T01:51:33;5.07;;;1.75;;
55829;SDS011;41759;53.330;6.002;2024-02-26T01:54:01;2.67;;;1.52;;
55829;SDS011;41759;53.330;6.002;2024-02-26T01:56:29;3.42;;;1.65;;
55829;SDS011;41759;53.330;6.002;2024-02-26T01:58:55;2.20;;;1.58;;
55829;SDS011;41759;53.330;6.002;2024-02-26T02:01:22;5.50;;;1.83;;
55829;SDS011;41759;53.330;6.002;2024-02-26T02:03:51;3.75;;;1.50;;
55829;SDS011;41759;53.330;6.002;2024-02-26T02:06:16;3.05;;;1.77;;
55829;SDS011;41759;53.330;6.002;2024-02-26T02:08:43;3.88;;;1.95;;
55829;SDS011;41759;53.330;6.002;2024-02-26T02:11:09;5.20;;;2.20;;
55829;SDS011;41759;53.330;6.002;2024-02-26T02:13:36;2.83;;;1.95;;
55829;SDS011;41759;53.330;6.002;2024-02-26T02:16:03;3.70;;;2.08;;
55829;SDS011;41759;53.330;6.002;2024-02-26T02:18:29;3.53;;;2.00;;
55829;SDS011;41759;53.330;6.002;2024-02-26T02:20:55;5.22;;;2.13;;
55829;SDS011;41759;53.330;6.002;2024-02-26T02:23:21;3.25;;;1.60;;
55829;SDS011;41759;53.330;6.002;2024-02-26T02:25:47;2.70;;;1.77;;
55829;SDS011;41759;53.330;6.002;2024-02-26T02:28:13;3.30;;;1.83;;
55829;SDS011;41759;53.330;6.002;2024-02-26T02:30:39;4.00;;;1.83;;
55829;SDS011;41759;53.330;6.002;2024-02-26T02:33:06;4.75;;;1.70;;
55829;SDS011;41759;53.330;6.002;2024-02-26T02:35:32;3.25;;;1.60;;
55829;SDS011;41759;53.330;6.002;2024-02-26T02:37:57;5.43;;;1.55;;
55829;SDS011;41759;53.330;6.002;2024-02-26T02:40:23;4.05;;;1.50;;
55829;SDS011;41759;53.330;6.002;2024-02-26T02:42:52;3.88;;;1.67;;
55829;SDS011;41759;53.330;6.002;2024-02-26T02:45:18;4.38;;;1.80;;
55829;SDS011;41759;53.330;6.002;2024-02-26T02:47:43;2.42;;;1.08;;
55829;SDS011;41759;53.330;6.002;2024-02-26T02:50:09;4.00;;;1.30;;
55829;SDS011;41759;53.330;6.002;2024-02-26T02:52:35;4.97;;;1.60;;
55829;SDS011;41759;53.330;6.002;2024-02-26T02:55:02;2.30;;;1.60;;
55829;SDS011;41759;53.330;6.002;2024-02-26T02:57:29;1.98;;;1.40;;
55829;SDS011;41759;53.330;6.002;2024-02-26T02:59:55;6.70;;;1.80;;
55829;SDS011;41759;53.330;6.002;2024-02-26T03:02:21;3.78;;;1.35;;
55829;SDS011;41759;53.330;6.002;2024-02-26T03:04:50;5.47;;;1.80;;
55829;SDS011;41759;53.330;6.002;2024-02-26T03:07:15;3.53;;;1.65;;
55829;SDS011;41759;53.330;6.002;2024-02-26T03:09:41;4.63;;;1.73;;
55829;SDS011;41759;53.330;6.002;2024-02-26T03:12:07;2.63;;;1.42;;
55829;SDS011;41759;53.330;6.002;2024-02-26T03:14:33;2.28;;;1.52;;
55829;SDS011;41759;53.330;6.002;2024-02-26T03:16:58;2.17;;;1.40;;
55829;SDS011;41759;53.330;6.002;2024-02-26T03:19:24;4.55;;;1.77;;
55829;SDS011;41759;53.330;6.002;2024-02-26T03:21:50;3.72;;;1.48;;
55829;SDS011;41759;53.330;6.002;2024-02-26T03:24:16;2.20;;;1.52;;
55829;SDS011;41759;53.330;6.002;2024-02-26T03:26:41;2.65;;;1.55;;
55829;SDS011;41759;53.330;6.002;2024-02-26T03:29:08;4.93;;;1.60;;
55829;SDS011;41759;53.330;6.002;2024-02-26T03:31:33;4.15;;;1.38;;
55829;SDS011;41759;53.330;6.002;2024-02-26T03:33:59;2.20;;;1.30;;
55829;SDS011;41759;53.330;6.002;2024-02-26T03:36:25;3.80;;;1.50;;
55829;SDS011;41759;53.330;6.002;2024-02-26T03:38:51;1.98;;;1.60;;
55829;SDS011;41759;53.330;6.002;2024-02-26T03:41:16;2.30;;;1.65;;
55829;SDS011;41759;53.330;6.002;2024-02-26T03:43:42;2.05;;;1.58;;
55829;SDS011;41759;53.330;6.002;2024-02-26T03:46:08;2.25;;;1.73;;
55829;SDS011;41759;53.330;6.002;2024-02-26T03:48:38;3.42;;;2.13;;
55829;SDS011;41759;53.330;6.002;2024-02-26T03:51:05;3.47;;;1.92;;
55829;SDS011;41759;53.330;6.002;2024-02-26T03:53:31;2.45;;;1.88;;
55829;SDS011;41759;53.330;6.002;2024-02-26T03:55:57;6.25;;;2.33;;
55829;SDS011;41759;53.330;6.002;2024-02-26T03:58:22;6.20;;;2.67;;
55829;SDS011;41759;53.330;6.002;2024-02-26T04:00:48;5.20;;;2.70;;
55829;SDS011;41759;53.330;6.002;2024-02-26T04:03:14;6.35;;;2.95;;
55829;SDS011;41759;53.330;6.002;2024-02-26T04:05:39;6.32;;;2.40;;
55829;SDS011;41759;53.330;6.002;2024-02-26T04:08:05;4.70;;;2.35;;
55829;SDS011;41759;53.330;6.002;2024-02-26T04:10:33;5.28;;;2.53;;
55829;SDS011;41759;53.330;6.002;2024-02-26T04:13:04;4.82;;;2.42;;
55829;SDS011;41759;53.330;6.002;2024-02-26T04:15:31;4.32;;;2.10;;
55829;SDS011;41759;53.330;6.002;2024-02-26T04:17:57;4.68;;;2.80;;
55829;SDS011;41759;53.330;6.002;2024-02-26T04:20:23;5.03;;;2.40;;
55829;SDS011;41759;53.330;6.002;2024-02-26T04:22:49;4.55;;;2.17;;
55829;SDS011;41759;53.330;6.002;2024-02-26T04:25:15;3.28;;;2.25;;
55829;SDS011;41759;53.330;6.002;2024-02-26T04:27:41;4.53;;;2.65;;
55829;SDS011;41759;53.330;6.002;2024-02-26T04:30:07;4.60;;;2.67;;
55829;SDS011;41759;53.330;6.002;2024-02-26T04:32:33;6.93;;;2.80;;
55829;SDS011;41759;53.330;6.002;2024-02-26T04:34:59;4.25;;;2.90;;
55829;SDS011;41759;53.330;6.002;2024-02-26T04:37:26;4.47;;;2.67;;
55829;SDS011;41759;53.330;6.002;2024-02-26T04:39:59;4.70;;;2.78;;
55829;SDS011;41759;53.330;6.002;2024-02-26T04:42:25;4.57;;;2.17;;
55829;SDS011;41759;53.330;6.002;2024-02-26T04:44:51;4.93;;;2.17;;
55829;SDS011;41759;53.330;6.002;2024-02-26T04:47:17;3.92;;;2.13;;
55829;SDS011;41759;53.330;6.002;2024-02-26T04:49:43;5.63;;;1.85;;
55829;SDS011;41759;53.330;6.002;2024-02-26T04:52:09;4.28;;;2.05;;
55829;SDS011;41759;53.330;6.002;2024-02-26T04:54:34;2.00;;;1.45;;
55829;SDS011;41759;53.330;6.002;2024-02-26T04:57:00;2.65;;;1.83;;
55829;SDS011;41759;53.330;6.002;2024-02-26T04:59:26;5.05;;;1.63;;
55829;SDS011;41759;53.330;6.002;2024-02-26T05:01:52;3.10;;;1.70;;
55829;SDS011;41759;53.330;6.002;2024-02-26T05:04:18;1.90;;;1.30;;
55829;SDS011;41759;53.330;6.002;2024-02-26T05:06:44;1.83;;;1.27;;
55829;SDS011;41759;53.330;6.002;2024-02-26T05:09:10;2.72;;;1.42;;
55829;SDS011;41759;53.330;6.002;2024-02-26T05:11:35;3.17;;;1.52;;
55829;SDS011;41759;53.330;6.002;2024-02-26T05:14:01;1.90;;;1.30;;
55829;SDS011;41759;53.330;6.002;2024-02-26T05:16:27;2.33;;;1.20;;
55829;SDS011;41759;53.330;6.002;2024-02-26T05:18:55;5.18;;;0.98;;
55829;SDS011;41759;53.330;6.002;2024-02-26T05:21:21;2.60;;;1.00;;
55829;SDS011;41759;53.330;6.002;2024-02-26T05:23:46;2.25;;;1.20;;
55829;SDS011;41759;53.330;6.002;2024-02-26T05:26:18;1.63;;;1.02;;
55829;SDS011;41759;53.330;6.002;2024-02-26T05:28:48;1.45;;;1.00;;
55829;SDS011;41759;53.330;6.002;2024-02-26T05:31:14;1.25;;;1.08;;
55829;SDS011;41759;53.330;6.002;2024-02-26T05:33:40;4.32;;;1.33;;
55829;SDS011;41759;53.330;6.002;2024-02-26T05:36:06;2.28;;;1.10;;
55829;SDS011;41759;53.330;6.002;2024-02-26T05:38:32;3.65;;;1.20;;
55829;SDS011;41759;53.330;6.002;2024-02-26T05:40:58;2.80;;;0.98;;
55829;SDS011;41759;53.330;6.002;2024-02-26T05:43:24;2.65;;;1.13;;
55829;SDS011;41759;53.330;6.002;2024-02-26T05:45:53;1.10;;;1.00;;
55829;SDS011;41759;53.330;6.002;2024-02-26T05:48:19;1.95;;;1.00;;
55829;SDS011;41759;53.330;6.002;2024-02-26T05:50:45;3.80;;;1.30;;
55829;SDS011;41759;53.330;6.002;2024-02-26T05:53:11;3.10;;;0.98;;
55829;SDS011;41759;53.330;6.002;2024-02-26T05:55:37;2.80;;;0.73;;
55829;SDS011;41759;53.330;6.002;2024-02-26T05:58:04;2.35;;;0.98;;
55829;SDS011;41759;53.330;6.002;2024-02-26T06:00:30;2.92;;;1.00;;
55829;SDS011;41759;53.330;6.002;2024-02-26T06:02:56;1.38;;;1.08;;
55829;SDS011;41759;53.330;6.002;2024-02-26T06:05:21;1.35;;;1.00;;
55829;SDS011;41759;53.330;6.002;2024-02-26T06:07:47;3.58;;;1.13;;
55829;SDS011;41759;53.330;6.002;2024-02-26T06:10:13;2.55;;;0.93;;
55829;SDS011;41759;53.330;6.002;2024-02-26T06:12:39;4.05;;;1.33;;
55829;SDS011;41759;53.330;6.002;2024-02-26T06:15:05;2.85;;;0.80;;
55829;SDS011;41759;53.330;6.002;2024-02-26T06:17:32;3.13;;;1.00;;
55829;SDS011;41759;53.330;6.002;2024-02-26T06:19:58;3.47;;;1.10;;
55829;SDS011;41759;53.330;6.002;2024-02-26T06:22:25;1.40;;;0.98;;
55829;SDS011;41759;53.330;6.002;2024-02-26T06:24:51;1.77;;;1.13;;
55829;SDS011;41759;53.330;6.002;2024-02-26T06:27:17;2.08;;;1.00;;
55829;SDS011;41759;53.330;6.002;2024-02-26T06:29:42;1.17;;;0.90;;
55829;SDS011;41759;53.330;6.002;2024-02-26T06:32:08;2.92;;;1.10;;
55829;SDS011;41759;53.330;6.002;2024-02-26T06:34:34;7.03;;;1.20;;
55829;SDS011;41759;53.330;6.002;2024-02-26T06:37:00;1.98;;;1.27;;
55829;SDS011;41759;53.330;6.002;2024-02-26T06:39:25;3.72;;;1.17;;
55829;SDS011;41759;53.330;6.002;2024-02-26T06:41:51;2.53;;;1.38;;
55829;SDS011;41759;53.330;6.002;2024-02-26T06:44:23;4.00;;;1.42;;
55829;SDS011;41759;53.330;6.002;2024-02-26T06:46:49;1.95;;;1.27;;
55829;SDS011;41759;53.330;6.002;2024-02-26T06:49:15;2.17;;;1.05;;
55829;SDS011;41759;53.330;6.002;2024-02-26T06:51:41;2.92;;;1.50;;
55829;SDS011;41759;53.330;6.002;2024-02-26T06:54:07;2.10;;;1.10;;
55829;SDS011;41759;53.330;6.002;2024-02-26T06:56:33;2.88;;;1.38;;
55829;SDS011;41759;53.330;6.002;2024-02-26T06:58:58;3.65;;;1.50;;
55829;SDS011;41759;53.330;6.002;2024-02-26T07:01:24;3.30;;;1.40;;
55829;SDS011;41759;53.330;6.002;2024-02-26T07:03:50;2.08;;;1.15;;
55829;SDS011;41759;53.330;6.002;2024-02-26T07:06:16;5.30;;;2.03;;
55829;SDS011;41759;53.330;6.002;2024-02-26T07:08:41;7.75;;;2.03;;
55829;SDS011;41759;53.330;6.002;2024-02-26T07:11:07;2.33;;;1.40;;
55829;SDS011;41759;53.330;6.002;2024-02-26T07:13:34;2.38;;;1.40;;
55829;SDS011;41759;53.330;6.002;2024-02-26T07:15:59;2.65;;;1.40;;
55829;SDS011;41759;53.330;6.002;2024-02-26T07:18:25;2.72;;;1.17;;
55829;SDS011;41759;53.330;6.002;2024-02-26T07:20:51;2.85;;;1.27;;
55829;SDS011;41759;53.330;6.002;2024-02-26T07:23:17;2.97;;;1.40;;
55829;SDS011;41759;53.330;6.002;2024-02-26T07:25:42;4.18;;;1.30;;
55829;SDS011;41759;53.330;6.002;2024-02-26T07:28:09;4.30;;;1.95;;
55829;SDS011;41759;53.330;6.002;2024-02-26T07:30:35;3.20;;;1.40;;
55829;SDS011;41759;53.330;6.002;2024-02-26T07:33:00;2.78;;;1.50;;
55829;SDS011;41759;53.330;6.002;2024-02-26T07:35:26;6.63;;;2.67;;
55829;SDS011;41759;53.330;6.002;2024-02-26T07:37:53;2.80;;;1.55;;
55829;SDS011;41759;53.330;6.002;2024-02-26T07:40:18;4.65;;;2.00;;
55829;SDS011;41759;53.330;6.002;2024-02-26T07:42:44;5.00;;;1.73;;
55829;SDS011;41759;53.330;6.002;2024-02-26T07:45:10;3.78;;;1.92;;
55829;SDS011;41759;53.330;6.002;2024-02-26T07:47:36;3.30;;;1.83;;
55829;SDS011;41759;53.330;6.002;2024-02-26T07:50:05;2.85;;;1.80;;
55829;SDS011;41759;53.330;6.002;2024-02-26T07:52:32;2.90;;;1.75;;
55829;SDS011;41759;53.330;6.002;2024-02-26T07:54:58;3.42;;;1.63;;
55829;SDS011;41759;53.330;6.002;2024-02-26T07:57:24;6.38;;;2.47;;
55829;SDS011;41759;53.330;6.002;2024-02-26T07:59:50;5.70;;;2.03;;
55829;SDS011;41759;53.330;6.002;2024-02-26T08:02:16;3.15;;;1.67;;
55829;SDS011;41759;53.330;6.002;2024-02-26T08:04:41;3.35;;;1.60;;
55829;SDS011;41759;53.330;6.002;2024-02-26T08:07:07;5.50;;;1.92;;
55829;SDS011;41759;53.330;6.002;2024-02-26T08:09:33;4.88;;;1.65;;
55829;SDS011;41759;53.330;6.002;2024-02-26T08:11:59;5.68;;;1.88;;
55829;SDS011;41759;53.330;6.002;2024-02-26T08:14:24;3.35;;;1.52;;
55829;SDS011;41759;53.330;6.002;2024-02-26T08:16:50;3.45;;;1.73;;
55829;SDS011;41759;53.330;6.002;2024-02-26T08:19:16;6.22;;;1.92;;
55829;SDS011;41759;53.330;6.002;2024-02-26T08:21:42;2.40;;;1.52;;
55829;SDS011;41759;53.330;6.002;2024-02-26T08:24:08;4.63;;;2.05;;
55829;SDS011;41759;53.330;6.002;2024-02-26T08:26:34;5.47;;;2.65;;
55829;SDS011;41759;53.330;6.002;2024-02-26T08:29:00;3.60;;;1.63;;
55829;SDS011;41759;53.330;6.002;2024-02-26T08:31:26;4.78;;;1.70;;
55829;SDS011;41759;53.330;6.002;2024-02-26T08:34:04;6.47;;;1.50;;
55829;SDS011;41759;53.330;6.002;2024-02-26T08:36:30;3.83;;;1.30;;
55829;SDS011;41759;53.330;6.002;2024-02-26T08:38:58;3.85;;;1.52;;
55829;SDS011;41759;53.330;6.002;2024-02-26T08:41:24;2.08;;;1.10;;
55829;SDS011;41759;53.330;6.002;2024-02-26T08:43:49;1.33;;;1.10;;
55829;SDS011;41759;53.330;6.002;2024-02-26T08:46:15;4.55;;;1.45;;
55829;SDS011;41759;53.330;6.002;2024-02-26T08:48:41;4.65;;;1.40;;
55829;SDS011;41759;53.330;6.002;2024-02-26T08:51:07;3.92;;;1.33;;
55829;SDS011;41759;53.330;6.002;2024-02-26T08:53:34;3.53;;;1.48;;
55829;SDS011;41759;53.330;6.002;2024-02-26T08:56:01;4.65;;;1.80;;
55829;SDS011;41759;53.330;6.002;2024-02-26T08:58:27;5.07;;;1.45;;
55829;SDS011;41759;53.330;6.002;2024-02-26T09:00:54;3.38;;;1.10;;
55829;SDS011;41759;53.330;6.002;2024-02-26T09:03:20;1.23;;;0.73;;
55829;SDS011;41759;53.330;6.002;2024-02-26T09:05:46;2.75;;;1.55;;
55829;SDS011;41759;53.330;6.002;2024-02-26T09:08:12;3.50;;;1.50;;
55829;SDS011;41759;53.330;6.002;2024-02-26T09:10:38;1.63;;;1.10;;
55829;SDS011;41759;53.330;6.002;2024-02-26T09:13:04;8.50;;;2.10;;
55829;SDS011;41759;53.330;6.002;2024-02-26T09:15:30;2.20;;;1.30;;
55829;SDS011;41759;53.330;6.002;2024-02-26T09:17:55;5.10;;;2.20;;
55829;SDS011;41759;53.330;6.002;2024-02-26T09:20:21;2.92;;;1.17;;
55829;SDS011;41759;53.330;6.002;2024-02-26T09:22:48;2.20;;;1.13;;
55829;SDS011;41759;53.330;6.002;2024-02-26T09:25:14;6.15;;;1.33;;
55829;SDS011;41759;53.330;6.002;2024-02-26T09:27:43;2.75;;;1.20;;
55829;SDS011;41759;53.330;6.002;2024-02-26T09:30:12;1.67;;;1.17;;
55829;SDS011;41759;53.330;6.002;2024-02-26T09:32:38;2.00;;;1.40;;
55829;SDS011;41759;53.330;6.002;2024-02-26T09:35:07;2.47;;;1.10;;
55829;SDS011;41759;53.330;6.002;2024-02-26T09:37:33;1.95;;;1.08;;
55829;SDS011;41759;53.330;6.002;2024-02-26T09:40:02;6.05;;;1.30;;
55829;SDS011;41759;53.330;6.002;2024-02-26T09:42:28;2.30;;;1.42;;
55829;SDS011;41759;53.330;6.002;2024-02-26T09:44:59;3.22;;;1.60;;
55829;SDS011;41759;53.330;6.002;2024-02-26T09:47:28;4.82;;;2.10;;
55829;SDS011;41759;53.330;6.002;2024-02-26T09:49:56;4.30;;;1.35;;
55829;SDS011;41759;53.330;6.002;2024-02-26T09:52:24;3.10;;;1.55;;
55829;SDS011;41759;53.330;6.002;2024-02-26T09:54:53;2.85;;;1.30;;
55829;SDS011;41759;53.330;6.002;2024-02-26T09:57:19;4.47;;;1.30;;
55829;SDS011;41759;53.330;6.002;2024-02-26T09:59:49;3.85;;;1.23;;
55829;SDS011;41759;53.330;6.002;2024-02-26T10:02:18;5.25;;;1.17;;
55829;SDS011;41759;53.330;6.002;2024-02-26T10:04:46;3.08;;;1.15;;
55829;SDS011;41759;53.330;6.002;2024-02-26T10:07:16;3.83;;;1.30;;
55829;SDS011;41759;53.330;6.002;2024-02-26T10:09:42;2.28;;;1.10;;
55829;SDS011;41759;53.330;6.002;2024-02-26T10:12:08;3.35;;;1.30;;
55829;SDS011;41759;53.330;6.002;2024-02-26T10:14:36;4.70;;;1.33;;
55829;SDS011;41759;53.330;6.002;2024-02-26T10:17:02;4.10;;;1.02;;
55829;SDS011;41759;53.330;6.002;2024-02-26T10:19:32;5.10;;;1.30;;
55829;SDS011;41759;53.330;6.002;2024-02-26T10:21:58;2.03;;;1.13;;
55829;SDS011;41759;53.330;6.002;2024-02-26T10:24:25;4.55;;;1.73;;
55829;SDS011;41759;53.330;6.002;2024-02-26T10:26:52;3.45;;;1.70;;
55829;SDS011;41759;53.330;6.002;2024-02-26T10:29:19;2.95;;;1.60;;
55829;SDS011;41759;53.330;6.002;2024-02-26T10:31:46;4.68;;;1.58;;
55829;SDS011;41759;53.330;6.002;2024-02-26T10:34:12;4.57;;;1.80;;
55829;SDS011;41759;53.330;6.002;2024-02-26T10:36:38;4.03;;;1.77;;
55829;SDS011;41759;53.330;6.002;2024-02-26T10:39:06;3.72;;;1.90;;
55829;SDS011;41759;53.330;6.002;2024-02-26T10:41:33;3.70;;;1.48;;
55829;SDS011;41759;53.330;6.002;2024-02-26T10:43:59;3.05;;;1.70;;
55829;SDS011;41759;53.330;6.002;2024-02-26T10:46:25;6.07;;;1.67;;
55829;SDS011;41759;53.330;6.002;2024-02-26T10:48:52;6.45;;;1.90;;
55829;SDS011;41759;53.330;6.002;2024-02-26T10:51:36;3.13;;;1.85;;
55829;SDS011;41759;53.330;6.002;2024-02-26T10:54:03;3.30;;;1.65;;
55829;SDS011;41759;53.330;6.002;2024-02-26T10:56:33;6.78;;;2.10;;
55829;SDS011;41759;53.330;6.002;2024-02-26T10:58:59;3.38;;;1.77;;
55829;SDS011;41759;53.330;6.002;2024-02-26T11:01:26;8.07;;;1.88;;
55829;SDS011;41759;53.330;6.002;2024-02-26T11:03:54;6.13;;;1.77;;
55829;SDS011;41759;53.330;6.002;2024-02-26T11:06:24;5.85;;;2.13;;
55829;SDS011;41759;53.330;6.002;2024-02-26T11:08:51;5.60;;;2.33;;
55829;SDS011;41759;53.330;6.002;2024-02-26T11:11:19;3.60;;;1.98;;
55829;SDS011;41759;53.330;6.002;2024-02-26T11:13:46;11.35;;;3.10;;
55829;SDS011;41759;53.330;6.002;2024-02-26T11:16:20;8.13;;;2.33;;
55829;SDS011;41759;53.330;6.002;2024-02-26T11:18:47;7.45;;;2.83;;
55829;SDS011;41759;53.330;6.002;2024-02-26T11:21:17;5.68;;;1.95;;
55829;SDS011;41759;53.330;6.002;2024-02-26T11:23:47;7.65;;;2.90;;
55829;SDS011;41759;53.330;6.002;2024-02-26T11:26:14;8.10;;;2.72;;
55829;SDS011;41759;53.330;6.002;2024-02-26T11:28:42;5.32;;;2.33;;
55829;SDS011;41759;53.330;6.002;2024-02-26T11:31:09;6.03;;;1.85;;
55829;SDS011;41759;53.330;6.002;2024-02-26T11:33:36;8.85;;;3.50;;
55829;SDS011;41759;53.330;6.002;2024-02-26T11:36:08;6.05;;;2.47;;
55829;SDS011;41759;53.330;6.002;2024-02-26T11:38:35;3.88;;;1.83;;
55829;SDS011;41759;53.330;6.002;2024-02-26T11:41:01;11.13;;;2.70;;
55829;SDS011;41759;53.330;6.002;2024-02-26T11:46:28;6.78;;;2.28;;
55829;SDS011;41759;53.330;6.002;2024-02-26T11:49:29;8.10;;;1.80;;
55829;SDS011;41759;53.330;6.002;2024-02-26T11:51:54;6.57;;;2.03;;
55829;SDS011;41759;53.330;6.002;2024-02-26T11:59:46;6.60;;;2.83;;
55829;SDS011;41759;53.330;6.002;2024-02-26T12:02:18;4.78;;;1.67;;
55829;SDS011;41759;53.330;6.002;2024-02-26T12:07:51;2.85;;;1.67;;
55829;SDS011;41759;53.330;6.002;2024-02-26T12:10:23;3.40;;;2.05;;
55829;SDS011;41759;53.330;6.002;2024-02-26T12:13:33;3.88;;;1.75;;
55829;SDS011;41759;53.330;6.002;2024-02-26T12:15:44;3.65;;;2.10;;
55829;SDS011;41759;53.330;6.002;2024-02-26T12:18:17;7.65;;;2.22;;
55829;SDS011;41759;53.330;6.002;2024-02-26T12:20:43;3.65;;;1.77;;
55829;SDS011;41759;53.330;6.002;2024-02-26T12:23:10;5.68;;;1.92;;
55829;SDS011;41759;53.330;6.002;2024-02-26T12:25:40;4.65;;;2.28;;
55829;SDS011;41759;53.330;6.002;2024-02-26T12:28:06;6.25;;;2.35;;
55829;SDS011;41759;53.330;6.002;2024-02-26T12:30:32;7.22;;;1.80;;
55829;SDS011;41759;53.330;6.002;2024-02-26T12:32:59;5.38;;;2.35;;
55829;SDS011;41759;53.330;6.002;2024-02-26T12:35:26;8.20;;;3.17;;
55829;SDS011;41759;53.330;6.002;2024-02-26T12:37:55;7.60;;;2.40;;
55829;SDS011;41759;53.330;6.002;2024-02-26T12:40:21;7.32;;;3.75;;
55829;SDS011;41759;53.330;6.002;2024-02-26T12:42:47;8.07;;;2.78;;
55829;SDS011;41759;53.330;6.002;2024-02-26T12:45:13;5.07;;;1.98;;
55829;SDS011;41759;53.330;6.002;2024-02-26T12:47:44;5.25;;;2.17;;
55829;SDS011;41759;53.330;6.002;2024-02-26T12:50:11;8.70;;;2.75;;
55829;SDS011;41759;53.330;6.002;2024-02-26T12:52:39;6.80;;;2.58;;
55829;SDS011;41759;53.330;6.002;2024-02-26T12:55:10;11.15;;;3.08;;
55829;SDS011;41759;53.330;6.002;2024-02-26T12:57:39;4.03;;;2.60;;
55829;SDS011;41759;53.330;6.002;2024-02-26T13:00:08;5.10;;;2.05;;
55829;SDS011;41759;53.330;6.002;2024-02-26T13:02:39;6.40;;;2.47;;
55829;SDS011;41759;53.330;6.002;2024-02-26T13:05:08;5.32;;;2.25;;
55829;SDS011;41759;53.330;6.002;2024-02-26T13:07:34;3.95;;;2.25;;
55829;SDS011;41759;53.330;6.002;2024-02-26T13:10:05;5.32;;;1.98;;
55829;SDS011;41759;53.330;6.002;2024-02-26T13:12:32;5.68;;;1.92;;
55829;SDS011;41759;53.330;6.002;2024-02-26T13:14:58;5.32;;;1.75;;
55829;SDS011;41759;53.330;6.002;2024-02-26T13:17:24;7.88;;;1.83;;
55829;SDS011;41759;53.330;6.002;2024-02-26T13:19:53;3.55;;;1.58;;
55829;SDS011;41759;53.330;6.002;2024-02-26T13:22:20;5.00;;;2.40;;
55829;SDS011;41759;53.330;6.002;2024-02-26T13:24:53;4.63;;;2.00;;
55829;SDS011;41759;53.330;6.002;2024-02-26T13:27:23;8.23;;;2.22;;
55829;SDS011;41759;53.330;6.002;2024-02-26T13:30:01;5.30;;;2.00;;
55829;SDS011;41759;53.330;6.002;2024-02-26T13:32:31;5.68;;;2.03;;
55829;SDS011;41759;53.330;6.002;2024-02-26T13:35:04;6.90;;;2.17;;
55829;SDS011;41759;53.330;6.002;2024-02-26T13:37:34;8.20;;;1.88;;
55829;SDS011;41759;53.330;6.002;2024-02-26T13:40:04;4.00;;;1.75;;
55829;SDS011;41759;53.330;6.002;2024-02-26T13:42:39;4.45;;;1.50;;
55829;SDS011;41759;53.330;6.002;2024-02-26T13:45:05;1.52;;;1.15;;
55829;SDS011;41759;53.330;6.002;2024-02-26T13:47:32;4.68;;;1.30;;
55829;SDS011;41759;53.330;6.002;2024-02-26T13:49:58;3.38;;;1.10;;
55829;SDS011;41759;53.330;6.002;2024-02-26T13:52:25;4.43;;;1.00;;
55829;SDS011;41759;53.330;6.002;2024-02-26T13:54:51;1.73;;;0.82;;
55829;SDS011;41759;53.330;6.002;2024-02-26T13:57:17;4.05;;;1.65;;
55829;SDS011;41759;53.330;6.002;2024-02-26T13:59:44;3.05;;;1.30;;
55829;SDS011;41759;53.330;6.002;2024-02-26T14:02:10;2.13;;;0.95;;
55829;SDS011;41759;53.330;6.002;2024-02-26T14:04:36;3.20;;;1.38;;
55829;SDS011;41759;53.330;6.002;2024-02-26T14:07:02;3.08;;;1.90;;
55829;SDS011;41759;53.330;6.002;2024-02-26T14:09:29;5.10;;;1.38;;
55829;SDS011;41759;53.330;6.002;2024-02-26T14:11:55;4.35;;;1.55;;
55829;SDS011;41759;53.330;6.002;2024-02-26T14:14:20;4.68;;;1.30;;
55829;SDS011;41759;53.330;6.002;2024-02-26T14:16:46;3.13;;;1.20;;
55829;SDS011;41759;53.330;6.002;2024-02-26T14:19:12;2.95;;;1.30;;
55829;SDS011;41759;53.330;6.002;2024-02-26T14:21:38;3.45;;;1.45;;
55829;SDS011;41759;53.330;6.002;2024-02-26T14:24:04;1.88;;;0.90;;
55829;SDS011;41759;53.330;6.002;2024-02-26T14:26:30;2.85;;;1.25;;
55829;SDS011;41759;53.330;6.002;2024-02-26T14:28:56;1.73;;;1.17;;
55829;SDS011;41759;53.330;6.002;2024-02-26T14:31:21;3.40;;;1.02;;
55829;SDS011;41759;53.330;6.002;2024-02-26T14:33:53;2.92;;;1.02;;
55829;SDS011;41759;53.330;6.002;2024-02-26T14:36:22;2.00;;;0.95;;
55829;SDS011;41759;53.330;6.002;2024-02-26T14:38:48;5.00;;;1.92;;
55829;SDS011;41759;53.330;6.002;2024-02-26T14:41:14;2.28;;;1.20;;
55829;SDS011;41759;53.330;6.002;2024-02-26T14:43:39;4.68;;;1.27;;
55829;SDS011;41759;53.330;6.002;2024-02-26T14:46:05;1.45;;;0.70;;
55829;SDS011;41759;53.330;6.002;2024-02-26T14:48:31;1.85;;;0.82;;
55829;SDS011;41759;53.330;6.002;2024-02-26T14:50:57;4.22;;;0.88;;
55829;SDS011;41759;53.330;6.002;2024-02-26T14:53:24;6.43;;;1.08;;
55829;SDS011;41759;53.330;6.002;2024-02-26T14:55:50;2.58;;;0.70;;
55829;SDS011;41759;53.330;6.002;2024-02-26T14:58:16;2.95;;;0.60;;